createdAt,value
2017-12-01T00:00:16.480Z,98460.62
2017-12-01T00:02:50.958Z,98463.61
2017-12-01T00:05:25.399Z,98459.45
2017-12-01T00:07:59.867Z,98459.89
2017-12-01T00:10:34.254Z,98468.66
2017-12-01T00:13:08.882Z,98467.20
2017-12-01T00:15:43.284Z,98463.17
2017-12-01T00:18:17.900Z,98469.55
2017-12-01T00:20:52.350Z,98459.69
2017-12-01T00:23:27.633Z,98464.70
2017-12-01T00:26:02.226Z,98468.39
2017-12-01T00:28:36.798Z,98465.61
2017-12-01T00:31:11.211Z,98460.84
2017-12-01T00:33:45.578Z,98461.60
2017-12-01T00:36:20.097Z,98462.45
2017-12-01T00:38:54.858Z,98461.07
2017-12-01T00:41:29.239Z,98469.86
2017-12-01T00:44:03.770Z,98471.63
2017-12-01T00:46:38.154Z,98479.36
2017-12-01T00:49:12.633Z,98485.00
2017-12-01T00:51:47.161Z,98486.83
2017-12-01T00:54:21.677Z,98494.23
2017-12-01T00:56:56.035Z,98495.03
2017-12-01T00:59:30.498Z,98492.09
2017-12-01T01:02:04.842Z,98499.27
2017-12-01T01:04:39.318Z,98502.27
2017-12-01T01:07:13.691Z,98506.91
2017-12-01T01:09:48.055Z,98503.88
2017-12-01T01:12:22.453Z,98508.45
2017-12-01T01:14:57.034Z,98511.25
2017-12-01T01:17:31.430Z,98512.43
2017-12-01T01:20:06.291Z,98512.41
2017-12-01T01:22:40.322Z,98509.81
2017-12-01T01:25:14.606Z,98519.75
2017-12-01T01:27:49.152Z,98519.62
2017-12-01T01:30:23.565Z,98515.02
2017-12-01T01:32:58.602Z,98529.02
2017-12-01T01:35:33.044Z,98522.59
2017-12-01T01:38:07.562Z,98517.84
2017-12-01T01:40:41.612Z,98519.05
2017-12-01T01:43:15.762Z,98516.81
2017-12-01T01:45:49.832Z,98517.63
2017-12-01T01:48:24.032Z,98515.67
2017-12-01T01:50:58.160Z,98501.64
2017-12-01T01:53:32.861Z,98515.56
2017-12-01T01:56:06.950Z,98517.30
2017-12-01T01:58:41.213Z,98524.21
2017-12-01T02:01:15.594Z,98529.84
2017-12-01T02:03:50.002Z,98524.31
2017-12-01T02:06:24.392Z,98506.54
2017-12-01T02:08:58.565Z,98528.88
2017-12-01T02:11:32.623Z,98532.67
2017-12-01T02:14:06.683Z,98534.33
2017-12-01T02:16:41.070Z,98533.00
2017-12-01T02:19:15.150Z,98533.41
2017-12-01T02:21:49.456Z,98546.50
2017-12-01T02:24:23.562Z,98546.14
2017-12-01T02:26:57.814Z,98554.38
2017-12-01T02:29:31.882Z,98549.05
2017-12-01T02:32:05.955Z,98550.19
2017-12-01T02:34:40.225Z,98551.88
2017-12-01T02:37:14.481Z,98554.20
2017-12-01T02:39:48.761Z,98552.83
2017-12-01T02:42:22.882Z,98559.56
2017-12-01T02:44:56.994Z,98563.86
2017-12-01T02:47:31.174Z,98569.67
2017-12-01T02:50:06.012Z,98571.41
2017-12-01T02:52:40.076Z,98568.75
2017-12-01T02:55:14.148Z,98568.83
2017-12-01T02:57:48.263Z,98561.72
2017-12-01T03:00:22.486Z,98564.31
2017-12-01T03:02:56.525Z,98562.19
2017-12-01T03:05:30.702Z,98579.73
2017-12-01T03:08:04.962Z,98581.61
2017-12-01T03:10:39.111Z,98577.31
2017-12-01T03:13:13.427Z,98579.78
2017-12-01T03:15:47.389Z,98585.26
2017-12-01T03:18:21.476Z,98582.23
2017-12-01T03:20:55.752Z,98574.80
2017-12-01T03:23:30.019Z,98580.17
2017-12-01T03:26:04.194Z,98574.61
2017-12-01T03:28:38.500Z,98588.36
2017-12-01T03:31:12.714Z,98591.25
2017-12-01T03:33:47.083Z,98595.64
2017-12-01T03:36:21.241Z,98602.44
2017-12-01T03:38:55.038Z,98595.12
2017-12-01T03:41:29.137Z,98594.61
2017-12-01T03:44:03.583Z,98592.03
2017-12-01T03:46:37.758Z,98599.44
2017-12-01T03:49:11.890Z,98602.12
2017-12-01T03:51:46.095Z,98605.84
2017-12-01T03:54:20.385Z,98605.27
2017-12-01T03:56:54.658Z,98614.28
2017-12-01T03:59:28.786Z,98622.98
2017-12-01T04:02:02.733Z,98615.41
2017-12-01T04:04:36.946Z,98623.91
2017-12-01T04:07:11.030Z,98609.50
2017-12-01T04:09:45.162Z,98621.63
2017-12-01T04:12:19.264Z,98611.60
2017-12-01T04:14:53.545Z,98611.35
2017-12-01T04:17:27.784Z,98612.63
2017-12-01T04:20:01.989Z,98614.11
2017-12-01T04:22:36.086Z,98618.52
2017-12-01T04:25:10.146Z,98619.64
2017-12-01T04:27:44.210Z,98624.56
2017-12-01T04:30:18.360Z,98630.90
2017-12-01T04:32:52.871Z,98635.55
2017-12-01T04:35:26.954Z,98641.70
2017-12-01T04:38:01.126Z,98646.28
2017-12-01T04:40:35.183Z,98647.75
2017-12-01T04:43:09.405Z,98649.88
2017-12-01T04:45:43.575Z,98650.31
2017-12-01T04:48:17.843Z,98655.16
2017-12-01T04:50:52.946Z,98646.80
2017-12-01T04:53:27.082Z,98665.70
2017-12-01T04:56:01.171Z,98671.12
2017-12-01T04:58:35.417Z,98669.98
2017-12-01T05:01:09.494Z,98669.52
2017-12-01T05:03:43.747Z,98667.06
2017-12-01T05:06:17.881Z,98670.36
2017-12-01T05:08:52.699Z,98656.53
2017-12-01T05:11:27.195Z,98625.94
2017-12-01T05:14:01.354Z,98679.60
2017-12-01T05:16:35.434Z,98680.83
2017-12-01T05:19:09.606Z,98678.31
2017-12-01T05:21:43.654Z,98688.13
2017-12-01T05:24:17.743Z,98690.86
2017-12-01T05:26:52.005Z,98695.57
2017-12-01T05:29:26.067Z,98696.09
2017-12-01T05:32:00.146Z,98710.43
2017-12-01T05:34:34.315Z,98711.22
2017-12-01T05:37:09.930Z,98713.20
2017-12-01T05:39:44.239Z,98710.02
2017-12-01T05:42:18.434Z,98715.31
2017-12-01T05:44:52.377Z,98726.29
2017-12-01T05:47:26.456Z,98723.41
2017-12-01T05:50:00.658Z,98728.59
2017-12-01T05:52:34.820Z,98733.80
2017-12-01T05:55:10.611Z,98735.45
2017-12-01T05:57:44.886Z,98729.60
2017-12-01T06:00:18.922Z,98747.02
2017-12-01T06:02:52.958Z,98741.40
2017-12-01T06:05:27.087Z,98743.30
2017-12-01T06:08:01.350Z,98749.08
2017-12-01T06:10:35.510Z,98754.03
2017-12-01T06:13:09.742Z,98761.06
2017-12-01T06:15:43.583Z,98754.39
2017-12-01T06:18:17.623Z,98760.63
2017-12-01T06:20:51.775Z,98762.34
2017-12-01T06:23:25.873Z,98765.45
2017-12-01T06:25:59.962Z,98772.14
2017-12-01T06:28:33.982Z,98785.14
2017-12-01T06:31:08.251Z,98797.27
2017-12-01T06:33:42.438Z,98797.20
2017-12-01T06:36:16.582Z,98797.64
2017-12-01T06:38:50.856Z,98807.47
2017-12-01T06:41:25.449Z,98816.30
2017-12-01T06:43:59.594Z,98823.07
2017-12-01T06:46:34.002Z,98825.27
2017-12-01T06:49:08.246Z,98830.78
2017-12-01T06:51:42.286Z,98802.90
2017-12-01T06:54:16.794Z,98837.06
2017-12-01T06:56:50.911Z,98838.19
2017-12-01T06:59:24.885Z,98843.63
2017-12-01T07:01:59.322Z,98843.86
2017-12-01T07:04:34.074Z,98840.58
2017-12-01T07:07:07.990Z,98850.91
2017-12-01T07:09:42.522Z,98804.34
2017-12-01T07:12:16.773Z,98841.81
2017-12-01T07:14:51.156Z,98851.02
2017-12-01T07:17:25.510Z,98854.25
2017-12-01T07:19:59.911Z,98853.98
2017-12-01T07:22:35.458Z,98862.33
2017-12-01T07:25:14.662Z,98860.13
2017-12-01T07:27:49.254Z,98857.81
2017-12-01T07:30:23.663Z,98867.14
2017-12-01T07:32:58.050Z,98851.41
2017-12-01T07:35:32.599Z,98865.81
2017-12-01T07:38:06.991Z,98873.54
2017-12-01T07:40:42.115Z,98874.84
2017-12-01T07:43:16.546Z,98877.38
2017-12-01T07:45:50.810Z,98875.77
2017-12-01T07:48:25.095Z,98873.44
2017-12-01T07:50:59.374Z,98873.00
2017-12-01T07:53:33.795Z,98870.84
2017-12-01T07:56:07.958Z,98881.16
2017-12-01T07:58:42.282Z,98877.06
2017-12-01T08:01:16.995Z,98886.30
2017-12-01T08:03:52.066Z,98892.31
2017-12-01T08:06:26.398Z,98887.16
2017-12-01T08:09:00.830Z,98876.25
2017-12-01T08:11:35.097Z,98883.53
2017-12-01T08:14:09.498Z,98885.16
2017-12-01T08:16:54.858Z,98892.27
2017-12-01T08:19:29.094Z,98895.84
2017-12-01T08:22:14.297Z,98898.30
2017-12-01T08:24:59.710Z,98906.03
2017-12-01T08:27:34.010Z,98900.96
2017-12-01T08:30:14.875Z,98902.39
2017-12-01T08:32:49.281Z,98906.62
2017-12-01T08:35:23.771Z,98908.81
2017-12-01T08:37:58.351Z,98909.91
2017-12-01T08:40:32.395Z,98918.48
2017-12-01T08:43:06.776Z,98919.82
2017-12-01T08:45:41.163Z,98920.36
2017-12-01T08:48:15.690Z,98925.84
2017-12-01T08:50:50.202Z,98930.89
2017-12-01T08:53:24.773Z,98921.38
2017-12-01T08:55:59.220Z,98931.73
2017-12-01T08:58:33.713Z,98921.90
2017-12-01T09:01:07.878Z,98929.81
2017-12-01T09:03:42.377Z,98932.96
2017-12-01T09:06:16.442Z,98926.09
2017-12-01T09:08:50.943Z,98938.36
2017-12-01T09:11:25.452Z,98936.73
2017-12-01T09:13:59.829Z,98925.74
2017-12-01T09:16:34.858Z,98939.38
2017-12-01T09:19:09.331Z,98930.08
2017-12-01T09:21:44.026Z,98938.30
2017-12-01T09:24:18.407Z,98938.32
2017-12-01T09:26:52.634Z,98942.75
2017-12-01T09:29:27.217Z,98943.67
2017-12-01T09:32:01.694Z,98943.34
2017-12-01T09:34:36.178Z,98953.45
2017-12-01T09:37:11.114Z,98947.99
2017-12-01T09:39:45.622Z,98950.34
2017-12-01T09:42:19.822Z,98940.61
2017-12-01T09:44:53.958Z,98943.97
2017-12-01T09:47:28.384Z,98937.94
2017-12-01T09:50:03.178Z,98951.97
2017-12-01T09:52:37.619Z,98942.54
2017-12-01T09:55:12.128Z,98840.63
2017-12-01T09:57:46.248Z,98943.88
2017-12-01T10:00:20.150Z,98943.58
2017-12-01T10:02:54.527Z,98947.19
2017-12-01T10:05:28.706Z,98951.20
2017-12-01T10:08:02.887Z,98944.75
2017-12-01T10:10:38.124Z,98948.50
2017-12-01T10:13:12.644Z,98855.56
2017-12-01T10:15:46.997Z,98943.70
2017-12-01T10:18:21.646Z,98949.06
2017-12-01T10:20:55.526Z,98943.30
2017-12-01T10:23:29.915Z,98938.73
2017-12-01T10:26:04.394Z,98946.41
2017-12-01T10:28:38.834Z,98951.77
2017-12-01T10:31:13.234Z,98955.66
2017-12-01T10:33:47.819Z,98951.07
2017-12-01T10:36:22.137Z,98955.39
2017-12-01T10:38:56.755Z,98961.00
2017-12-01T10:41:31.287Z,98957.66
2017-12-01T10:44:06.411Z,98953.39
2017-12-01T10:46:40.942Z,98951.60
2017-12-01T10:49:15.454Z,98954.22
2017-12-01T10:51:49.487Z,98954.59
2017-12-01T10:54:23.854Z,98955.92
2017-12-01T10:56:58.262Z,98960.75
2017-12-01T10:59:32.328Z,98961.47
2017-12-01T11:02:06.786Z,98966.56
2017-12-01T11:04:41.377Z,98966.23
2017-12-01T11:07:15.784Z,98970.17
2017-12-01T11:09:50.278Z,98964.87
2017-12-01T11:12:24.716Z,98861.95
2017-12-01T11:14:59.074Z,98960.82
2017-12-01T11:17:33.445Z,98961.22
2017-12-01T11:20:09.266Z,98960.58
2017-12-01T11:22:43.940Z,98956.17
2017-12-01T11:25:18.318Z,98957.49
2017-12-01T11:27:53.607Z,98953.86
2017-12-01T11:30:28.801Z,98929.90
2017-12-01T11:33:03.090Z,98961.51
2017-12-01T11:35:37.542Z,98966.76
2017-12-01T11:38:11.930Z,98966.07
2017-12-01T11:40:46.394Z,98962.59
2017-12-01T11:43:20.921Z,98962.70
2017-12-01T11:45:55.366Z,98955.53
2017-12-01T11:48:29.858Z,98950.66
2017-12-01T11:51:04.540Z,98960.41
2017-12-01T11:53:39.001Z,98962.70
2017-12-01T11:56:13.406Z,98958.41
2017-12-01T11:58:47.906Z,98965.99
2017-12-01T12:01:21.752Z,98917.46
2017-12-01T12:03:56.351Z,98951.63
2017-12-01T12:06:30.452Z,98968.92
2017-12-01T12:09:04.339Z,98969.47
2017-12-01T12:11:38.410Z,98973.55
2017-12-01T12:14:12.586Z,98964.62
2017-12-01T12:16:47.176Z,98977.91
2017-12-01T12:19:21.358Z,98973.16
2017-12-01T12:21:55.765Z,98971.70
2017-12-01T12:24:29.854Z,98964.27
2017-12-01T12:27:04.601Z,98966.18
2017-12-01T12:29:38.781Z,98972.91
2017-12-01T12:32:13.128Z,98970.41
2017-12-01T12:34:47.302Z,98986.87
2017-12-01T12:37:21.358Z,98984.65
2017-12-01T12:39:55.429Z,98978.38
2017-12-01T12:42:29.579Z,98973.95
2017-12-01T12:45:09.671Z,98978.13
2017-12-01T12:47:43.778Z,98984.92
2017-12-01T12:50:18.210Z,98984.03
2017-12-01T12:52:52.581Z,98988.70
2017-12-01T12:55:26.970Z,98991.93
2017-12-01T12:58:00.998Z,98993.79
2017-12-01T13:00:34.771Z,98997.13
2017-12-01T13:03:08.951Z,98994.16
2017-12-01T13:05:43.018Z,99002.50
2017-12-01T13:08:17.228Z,98988.22
2017-12-01T13:10:52.163Z,98985.19
2017-12-01T13:13:26.454Z,98989.91
2017-12-01T13:16:00.357Z,98996.74
2017-12-01T13:18:34.430Z,98995.36
2017-12-01T13:21:08.610Z,98992.58
2017-12-01T13:23:42.814Z,98993.33
2017-12-01T13:26:19.271Z,98900.44
2017-12-01T13:28:53.398Z,99003.39
2017-12-01T13:31:28.191Z,99005.83
2017-12-01T13:34:02.438Z,99013.52
2017-12-01T13:36:36.875Z,99009.97
2017-12-01T13:39:11.014Z,99011.93
2017-12-01T13:41:45.082Z,99019.19
2017-12-01T13:44:19.170Z,99015.29
2017-12-01T13:46:53.609Z,99018.58
2017-12-01T13:49:27.756Z,99024.84
2017-12-01T13:52:04.693Z,99022.31
2017-12-01T13:54:39.887Z,99023.58
2017-12-01T13:57:14.406Z,99016.28
2017-12-01T13:59:48.847Z,99031.81
2017-12-01T14:02:22.779Z,99038.41
2017-12-01T14:04:57.698Z,99039.50
2017-12-01T14:07:31.898Z,99038.91
2017-12-01T14:10:12.138Z,99020.16
2017-12-01T14:12:46.704Z,99038.52
2017-12-01T14:15:21.171Z,99044.68
2017-12-01T14:17:55.813Z,99036.25
2017-12-01T14:20:30.222Z,99044.06
2017-12-01T14:23:04.710Z,99042.70
2017-12-01T14:25:39.346Z,99050.30
2017-12-01T14:28:13.866Z,99048.27
2017-12-01T14:30:48.334Z,99045.20
2017-12-01T14:33:22.810Z,99054.53
2017-12-01T14:35:57.936Z,99057.34
2017-12-01T14:38:32.554Z,99053.89
2017-12-01T14:41:06.990Z,99059.64
2017-12-01T14:43:41.903Z,99065.22
2017-12-01T14:46:16.322Z,99067.53
2017-12-01T14:48:50.942Z,99063.33
2017-12-01T14:51:26.004Z,99065.30
2017-12-01T14:54:00.710Z,99062.50
2017-12-01T14:56:35.106Z,99075.73
2017-12-01T14:59:09.630Z,99068.68
2017-12-01T15:01:43.982Z,99085.59
2017-12-01T15:04:18.575Z,99093.35
2017-12-01T15:06:53.513Z,99098.73
2017-12-01T15:09:28.046Z,99062.81
2017-12-01T15:12:03.918Z,99112.09
2017-12-01T15:14:39.321Z,99115.20
2017-12-01T15:17:13.865Z,99127.19
2017-12-01T15:19:48.279Z,99126.89
2017-12-01T15:22:24.039Z,99130.70
2017-12-01T15:25:00.450Z,99132.18
2017-12-01T15:27:37.946Z,99133.99
2017-12-01T15:30:12.376Z,99134.41
2017-12-01T15:32:49.422Z,99138.63
2017-12-01T15:35:23.947Z,99151.65
2017-12-01T15:37:58.441Z,99162.52
2017-12-01T15:40:32.638Z,99164.52
2017-12-01T15:43:06.910Z,99162.44
2017-12-01T15:45:40.958Z,99159.89
2017-12-01T15:48:15.349Z,99167.91
2017-12-01T15:50:49.919Z,99172.66
2017-12-01T15:53:24.527Z,99175.36
2017-12-01T15:55:58.774Z,99171.66
2017-12-01T15:58:40.930Z,99181.34
2017-12-01T16:01:15.148Z,99185.68
2017-12-01T16:03:49.264Z,99185.33
2017-12-01T16:06:23.419Z,99192.77
2017-12-01T16:08:57.681Z,99176.13
2017-12-01T16:11:31.735Z,99203.34
2017-12-01T16:14:09.438Z,99203.14
2017-12-01T16:16:43.962Z,99208.45
2017-12-01T16:19:18.073Z,99204.53
2017-12-01T16:21:52.106Z,99209.78
2017-12-01T16:24:26.206Z,99216.36
2017-12-01T16:27:00.273Z,99227.09
2017-12-01T16:29:35.402Z,99230.80
2017-12-01T16:32:09.793Z,99227.84
2017-12-01T16:34:44.342Z,99236.16
2017-12-01T16:37:18.754Z,99234.13
2017-12-01T16:39:53.297Z,99233.72
2017-12-01T16:42:27.361Z,99233.77
2017-12-01T16:45:01.862Z,99240.33
2017-12-01T16:47:36.247Z,99243.38
2017-12-01T16:50:15.451Z,99243.06
2017-12-01T16:52:49.622Z,99243.27
2017-12-01T16:55:23.708Z,99243.51
2017-12-01T16:57:58.304Z,99246.23
2017-12-01T17:00:32.772Z,99250.09
2017-12-01T17:03:06.878Z,99256.53
2017-12-01T17:05:41.063Z,99250.47
2017-12-01T17:08:15.395Z,99263.70
2017-12-01T17:10:49.553Z,99237.30
2017-12-01T17:13:23.743Z,99260.77
2017-12-01T17:15:59.204Z,99261.67
2017-12-01T17:18:33.258Z,99263.63
2017-12-01T17:21:07.446Z,99262.47
2017-12-01T17:23:41.602Z,99273.44
2017-12-01T17:26:17.074Z,99274.00
2017-12-01T17:28:51.361Z,99273.28
2017-12-01T17:31:27.098Z,99272.98
2017-12-01T17:34:01.342Z,99277.48
2017-12-01T17:36:35.410Z,99278.13
2017-12-01T17:39:12.474Z,99274.48
2017-12-01T17:41:52.762Z,99261.36
2017-12-01T17:44:27.355Z,99282.70
2017-12-01T17:47:02.030Z,99281.44
2017-12-01T17:49:36.186Z,99288.23
2017-12-01T17:52:10.199Z,99294.08
2017-12-01T17:54:44.508Z,99299.71
2017-12-01T17:57:18.663Z,99294.89
2017-12-01T17:59:53.330Z,99305.13
2017-12-01T18:02:27.594Z,99292.95
2017-12-01T18:05:02.111Z,99303.64
2017-12-01T18:07:36.162Z,99301.73
2017-12-01T18:10:10.194Z,99305.08
2017-12-01T18:12:44.426Z,99298.19
2017-12-01T18:15:18.462Z,99300.61
2017-12-01T18:17:52.754Z,99301.02
2017-12-01T18:20:26.853Z,99305.42
2017-12-01T18:23:01.287Z,99304.02
2017-12-01T18:25:35.442Z,99284.36
2017-12-01T18:28:09.608Z,99302.03
2017-12-01T18:30:43.646Z,99303.09
2017-12-01T18:33:17.877Z,99310.03
2017-12-01T18:35:52.305Z,99313.04
2017-12-01T18:38:26.560Z,99316.30
2017-12-01T18:41:00.946Z,99312.59
2017-12-01T18:43:35.113Z,99314.30
2017-12-01T18:46:09.485Z,99319.48
2017-12-01T18:48:43.990Z,99324.22
2017-12-01T18:51:18.125Z,99322.89
2017-12-01T18:53:52.382Z,99321.91
2017-12-01T18:56:26.579Z,99324.16
2017-12-01T18:59:00.674Z,99324.06
2017-12-01T19:01:35.179Z,99334.16
2017-12-01T19:04:09.798Z,99337.02
2017-12-01T19:06:44.153Z,99348.77
2017-12-01T19:09:18.353Z,99338.77
2017-12-01T19:11:52.929Z,99348.73
2017-12-01T19:14:27.371Z,99347.95
2017-12-01T19:17:02.392Z,99348.52
2017-12-01T19:19:36.591Z,99352.03
2017-12-01T19:22:12.377Z,99362.16
2017-12-01T19:24:46.438Z,99367.58
2017-12-01T19:27:20.651Z,99372.21
2017-12-01T19:29:55.092Z,99371.69
2017-12-01T19:32:29.342Z,99378.46
2017-12-01T19:35:03.576Z,99375.09
2017-12-01T19:37:38.366Z,99385.66
2017-12-01T19:40:12.841Z,99376.09
2017-12-01T19:42:47.087Z,99385.31
2017-12-01T19:45:21.211Z,99373.11
2017-12-01T19:47:55.771Z,99388.89
2017-12-01T19:50:33.971Z,99387.67
2017-12-01T19:53:08.553Z,99394.67
2017-12-01T19:55:46.083Z,99400.27
2017-12-01T19:58:20.293Z,99395.52
2017-12-01T20:00:55.313Z,99399.42
2017-12-01T20:03:29.811Z,99402.45
2017-12-01T20:06:07.979Z,99403.75
2017-12-01T20:08:43.487Z,99408.98
2017-12-01T20:11:17.532Z,99415.65
2017-12-01T20:13:52.154Z,99422.81
2017-12-01T20:16:26.088Z,99428.83
2017-12-01T20:19:00.182Z,99424.69
2017-12-01T20:21:34.353Z,99434.67
2017-12-01T20:24:08.997Z,99435.59
2017-12-01T20:26:43.209Z,99438.88
2017-12-01T20:29:17.882Z,99453.39
2017-12-01T20:31:52.705Z,99442.94
2017-12-01T20:34:28.092Z,99446.11
2017-12-01T20:37:02.410Z,99447.49
2017-12-01T20:39:36.648Z,99446.76
2017-12-01T20:42:10.641Z,99448.98
2017-12-01T20:44:46.893Z,99448.78
2017-12-01T20:47:25.479Z,99449.95
2017-12-01T20:49:59.708Z,99433.62
2017-12-01T20:52:33.985Z,99455.39
2017-12-01T20:55:08.790Z,99455.22
2017-12-01T20:57:42.923Z,99454.13
2017-12-01T21:00:16.963Z,99465.22
2017-12-01T21:02:51.457Z,99467.68
2017-12-01T21:05:26.624Z,99469.14
2017-12-01T21:08:00.892Z,99479.66
2017-12-01T21:10:36.101Z,99477.47
2017-12-01T21:13:10.863Z,99479.83
2017-12-01T21:15:45.132Z,99483.72
2017-12-01T21:18:19.174Z,99483.06
2017-12-01T21:20:53.569Z,99494.22
2017-12-01T21:23:28.104Z,99463.75
2017-12-01T21:26:03.854Z,99492.32
2017-12-01T21:28:38.550Z,99489.70
2017-12-01T21:31:12.775Z,99488.03
2017-12-01T21:33:46.831Z,99486.31
2017-12-01T21:36:24.719Z,99488.52
2017-12-01T21:38:59.518Z,99491.30
2017-12-01T21:41:34.613Z,99496.70
2017-12-01T21:44:09.046Z,99494.09
2017-12-01T21:46:46.510Z,99501.63
2017-12-01T21:49:22.124Z,99496.04
2017-12-01T21:51:59.022Z,99486.66
2017-12-01T21:54:34.435Z,99500.28
2017-12-01T21:57:09.045Z,99503.23
2017-12-01T21:59:48.348Z,99507.20
2017-12-01T22:02:22.860Z,99502.34
2017-12-01T22:04:58.108Z,99493.37
2017-12-01T22:07:32.951Z,99494.62
2017-12-01T22:10:07.529Z,99498.00
2017-12-01T22:12:42.073Z,99497.98
2017-12-01T22:15:21.023Z,99502.55
2017-12-01T22:17:55.421Z,99498.16
2017-12-01T22:20:29.578Z,99488.10
2017-12-01T22:23:03.627Z,99501.42
2017-12-01T22:25:39.000Z,99505.51
2017-12-01T22:28:13.466Z,99505.55
2017-12-01T22:30:47.855Z,99503.72
2017-12-01T22:33:23.197Z,99498.51
2017-12-01T22:35:57.774Z,99501.95
2017-12-01T22:38:32.214Z,99509.44
2017-12-01T22:41:06.571Z,99514.03
2017-12-01T22:43:40.931Z,99507.70
2017-12-01T22:46:15.920Z,99509.46
2017-12-01T22:48:50.518Z,99514.75
2017-12-01T22:51:24.881Z,99480.42
2017-12-01T22:53:59.353Z,99517.42
2017-12-01T22:56:34.020Z,99516.83
2017-12-01T22:59:08.387Z,99514.66
2017-12-01T23:01:42.834Z,99516.69
2017-12-01T23:04:17.794Z,99527.29
2017-12-01T23:06:52.380Z,99523.59
2017-12-01T23:09:27.030Z,99516.53
2017-12-01T23:12:01.498Z,99519.16
2017-12-01T23:14:35.878Z,99513.75
2017-12-01T23:17:10.335Z,99513.74
2017-12-01T23:19:44.994Z,99518.36
2017-12-01T23:22:19.355Z,99517.30
2017-12-01T23:24:53.787Z,99512.65
2017-12-01T23:27:28.094Z,99522.05
2017-12-01T23:30:02.799Z,99516.27
2017-12-01T23:32:37.975Z,99523.03
2017-12-01T23:35:13.162Z,99523.97
2017-12-01T23:37:47.775Z,99521.09
2017-12-01T23:40:22.895Z,99525.02
2017-12-01T23:42:57.457Z,99515.17
2017-12-01T23:45:32.118Z,99500.63
2017-12-01T23:48:06.626Z,99514.77
2017-12-01T23:50:40.990Z,99521.11
2017-12-01T23:53:15.770Z,99523.00
2017-12-01T23:55:49.922Z,99522.52
2017-12-01T23:58:24.276Z,99519.89
